sensor_id;sensor_type;location;lat;lon;timestamp;P1;durP1;ratioP1;P2;durP2;ratioP2
3613;SDS011;1821;50.936;6.854;2023-06-24T00:00:30;7.72;;;6.78;;
3613;SDS011;1821;50.936;6.854;2023-06-24T00:01:13;9.45;;;6.55;;
3613;SDS011;1821;50.936;6.854;2023-06-24T00:01:56;10.57;;;7.20;;
3613;SDS011;1821;50.936;6.854;2023-06-24T00:02:39;7.70;;;6.47;;
3613;SDS011;1821;50.936;6.854;2023-06-24T00:03:24;8.55;;;6.60;;
3613;SDS011;1821;50.936;6.854;2023-06-24T00:04:07;8.20;;;6.55;;
3613;SDS011;1821;50.936;6.854;2023-06-24T00:04:50;7.88;;;6.90;;
3613;SDS011;1821;50.936;6.854;2023-06-24T00:05:33;7.60;;;6.80;;
3613;SDS011;1821;50.936;6.854;2023-06-24T00:06:16;8.32;;;7.00;;
3613;SDS011;1821;50.936;6.854;2023-06-24T00:07:00;7.53;;;6.30;;
3613;SDS011;1821;50.936;6.854;2023-06-24T00:07:42;8.40;;;6.38;;
3613;SDS011;1821;50.936;6.854;2023-06-24T00:08:28;8.60;;;6.90;;
3613;SDS011;1821;50.936;6.854;2023-06-24T00:09:15;6.80;;;6.10;;
3613;SDS011;1821;50.936;6.854;2023-06-24T00:10:00;6.90;;;6.10;;
3613;SDS011;1821;50.936;6.854;2023-06-24T00:10:47;7.55;;;6.35;;
3613;SDS011;1821;50.936;6.854;2023-06-24T00:11:32;7.20;;;6.28;;
3613;SDS011;1821;50.936;6.854;2023-06-24T00:12:14;7.50;;;6.60;;
3613;SDS011;1821;50.936;6.854;2023-06-24T00:13:00;10.02;;;6.50;;
3613;SDS011;1821;50.936;6.854;2023-06-24T00:13:43;8.88;;;6.10;;
3613;SDS011;1821;50.936;6.854;2023-06-24T00:14:26;8.48;;;6.63;;
3613;SDS011;1821;50.936;6.854;2023-06-24T00:15:08;7.72;;;6.57;;
3613;SDS011;1821;50.936;6.854;2023-06-24T00:15:51;8.20;;;6.50;;
3613;SDS011;1821;50.936;6.854;2023-06-24T00:16:33;8.52;;;6.85;;
3613;SDS011;1821;50.936;6.854;2023-06-24T00:17:17;10.25;;;8.45;;
3613;SDS011;1821;50.936;6.854;2023-06-24T00:17:59;9.98;;;7.30;;
3613;SDS011;1821;50.936;6.854;2023-06-24T00:18:47;7.40;;;5.90;;
3613;SDS011;1821;50.936;6.854;2023-06-24T00:19:30;8.52;;;6.90;;
3613;SDS011;1821;50.936;6.854;2023-06-24T00:20:13;10.57;;;6.32;;
3613;SDS011;1821;50.936;6.854;2023-06-24T00:20:56;9.63;;;6.78;;
3613;SDS011;1821;50.936;6.854;2023-06-24T00:21:38;7.60;;;6.78;;
3613;SDS011;1821;50.936;6.854;2023-06-24T00:22:21;8.23;;;6.60;;
3613;SDS011;1821;50.936;6.854;2023-06-24T00:23:06;9.13;;;6.70;;
3613;SDS011;1821;50.936;6.854;2023-06-24T00:23:48;8.27;;;6.63;;
3613;SDS011;1821;50.936;6.854;2023-06-24T00:24:31;7.65;;;6.57;;
3613;SDS011;1821;50.936;6.854;2023-06-24T00:25:13;7.00;;;6.30;;
3613;SDS011;1821;50.936;6.854;2023-06-24T00:25:58;7.40;;;6.30;;
3613;SDS011;1821;50.936;6.854;2023-06-24T00:26:40;7.85;;;6.05;;
3613;SDS011;1821;50.936;6.854;2023-06-24T00:27:22;10.10;;;6.95;;
3613;SDS011;1821;50.936;6.854;2023-06-24T00:28:05;7.30;;;6.47;;
3613;SDS011;1821;50.936;6.854;2023-06-24T00:28:47;6.60;;;5.97;;
3613;SDS011;1821;50.936;6.854;2023-06-24T00:29:32;9.60;;;7.05;;
3613;SDS011;1821;50.936;6.854;2023-06-24T00:30:14;9.70;;;7.03;;
3613;SDS011;1821;50.936;6.854;2023-06-24T00:30:56;11.65;;;6.50;;
3613;SDS011;1821;50.936;6.854;2023-06-24T00:31:38;9.15;;;6.43;;
3613;SDS011;1821;50.936;6.854;2023-06-24T00:32:21;8.85;;;6.55;;
3613;SDS011;1821;50.936;6.854;2023-06-24T00:33:03;7.57;;;5.90;;
3613;SDS011;1821;50.936;6.854;2023-06-24T00:33:47;6.80;;;6.10;;
3613;SDS011;1821;50.936;6.854;2023-06-24T00:34:33;8.63;;;7.07;;
3613;SDS011;1821;50.936;6.854;2023-06-24T00:35:15;7.10;;;6.40;;
3613;SDS011;1821;50.936;6.854;2023-06-24T00:35:58;10.05;;;7.00;;
3613;SDS011;1821;50.936;6.854;2023-06-24T00:36:43;9.43;;;7.20;;
3613;SDS011;1821;50.936;6.854;2023-06-24T00:37:25;9.00;;;6.78;;
3613;SDS011;1821;50.936;6.854;2023-06-24T00:38:07;9.30;;;7.55;;
3613;SDS011;1821;50.936;6.854;2023-06-24T00:38:50;8.70;;;7.40;;
3613;SDS011;1821;50.936;6.854;2023-06-24T00:39:32;9.20;;;7.00;;
3613;SDS011;1821;50.936;6.854;2023-06-24T00:40:14;7.50;;;6.47;;
3613;SDS011;1821;50.936;6.854;2023-06-24T00:40:58;7.65;;;6.78;;
3613;SDS011;1821;50.936;6.854;2023-06-24T00:41:41;9.00;;;7.30;;
3613;SDS011;1821;50.936;6.854;2023-06-24T00:42:23;12.55;;;7.10;;
3613;SDS011;1821;50.936;6.854;2023-06-24T00:43:06;10.57;;;6.90;;
3613;SDS011;1821;50.936;6.854;2023-06-24T00:43:49;8.38;;;6.65;;
3613;SDS011;1821;50.936;6.854;2023-06-24T00:44:31;7.78;;;6.93;;
3613;SDS011;1821;50.936;6.854;2023-06-24T00:45:13;7.82;;;7.03;;
3613;SDS011;1821;50.936;6.854;2023-06-24T00:46:00;8.55;;;6.60;;
3613;SDS011;1821;50.936;6.854;2023-06-24T00:46:42;7.22;;;6.53;;
3613;SDS011;1821;50.936;6.854;2023-06-24T00:47:27;7.88;;;7.07;;
3613;SDS011;1821;50.936;6.854;2023-06-24T00:48:16;7.38;;;6.40;;
3613;SDS011;1821;50.936;6.854;2023-06-24T00:48:58;8.70;;;7.57;;
3613;SDS011;1821;50.936;6.854;2023-06-24T00:49:42;7.70;;;6.90;;
3613;SDS011;1821;50.936;6.854;2023-06-24T00:50:26;8.38;;;7.13;;
3613;SDS011;1821;50.936;6.854;2023-06-24T00:51:09;9.13;;;7.25;;
3613;SDS011;1821;50.936;6.854;2023-06-24T00:51:51;8.82;;;7.30;;
3613;SDS011;1821;50.936;6.854;2023-06-24T00:52:33;7.50;;;6.70;;
3613;SDS011;1821;50.936;6.854;2023-06-24T00:53:18;10.40;;;6.90;;
3613;SDS011;1821;50.936;6.854;2023-06-24T00:54:01;10.57;;;6.60;;
3613;SDS011;1821;50.936;6.854;2023-06-24T00:54:44;8.57;;;6.70;;
3613;SDS011;1821;50.936;6.854;2023-06-24T00:55:26;11.60;;;7.30;;
3613;SDS011;1821;50.936;6.854;2023-06-24T00:56:10;10.00;;;6.97;;
3613;SDS011;1821;50.936;6.854;2023-06-24T00:56:57;7.95;;;6.90;;
3613;SDS011;1821;50.936;6.854;2023-06-24T00:57:42;7.30;;;6.40;;
3613;SDS011;1821;50.936;6.854;2023-06-24T00:58:27;8.23;;;6.20;;
3613;SDS011;1821;50.936;6.854;2023-06-24T00:59:14;8.80;;;6.75;;
3613;SDS011;1821;50.936;6.854;2023-06-24T00:59:57;10.10;;;6.68;;
3613;SDS011;1821;50.936;6.854;2023-06-24T01:00:44;9.75;;;6.93;;
3613;SDS011;1821;50.936;6.854;2023-06-24T01:01:28;8.85;;;7.70;;
3613;SDS011;1821;50.936;6.854;2023-06-24T01:02:13;8.77;;;7.05;;
3613;SDS011;1821;50.936;6.854;2023-06-24T01:02:55;8.93;;;7.30;;
3613;SDS011;1821;50.936;6.854;2023-06-24T01:03:41;8.98;;;7.30;;
3613;SDS011;1821;50.936;6.854;2023-06-24T01:04:23;7.95;;;7.15;;
3613;SDS011;1821;50.936;6.854;2023-06-24T01:05:06;8.05;;;7.25;;
3613;SDS011;1821;50.936;6.854;2023-06-24T01:05:49;7.68;;;6.97;;
3613;SDS011;1821;50.936;6.854;2023-06-24T01:06:31;8.25;;;7.18;;
3613;SDS011;1821;50.936;6.854;2023-06-24T01:07:14;9.15;;;7.97;;
3613;SDS011;1821;50.936;6.854;2023-06-24T01:07:58;9.70;;;7.50;;
3613;SDS011;1821;50.936;6.854;2023-06-24T01:08:41;10.73;;;7.93;;
3613;SDS011;1821;50.936;6.854;2023-06-24T01:09:23;9.43;;;7.35;;
3613;SDS011;1821;50.936;6.854;2023-06-24T01:10:09;9.18;;;8.07;;
3613;SDS011;1821;50.936;6.854;2023-06-24T01:10:53;9.93;;;8.23;;
3613;SDS011;1821;50.936;6.854;2023-06-24T01:11:35;10.10;;;8.07;;
3613;SDS011;1821;50.936;6.854;2023-06-24T01:12:20;12.15;;;7.70;;
3613;SDS011;1821;50.936;6.854;2023-06-24T01:13:02;10.93;;;8.17;;
3613;SDS011;1821;50.936;6.854;2023-06-24T01:13:47;12.73;;;8.00;;
3613;SDS011;1821;50.936;6.854;2023-06-24T01:14:30;9.57;;;7.70;;
3613;SDS011;1821;50.936;6.854;2023-06-24T01:15:12;11.40;;;9.40;;
3613;SDS011;1821;50.936;6.854;2023-06-24T01:15:55;10.55;;;9.00;;
3613;SDS011;1821;50.936;6.854;2023-06-24T01:20:08;9.18;;;8.27;;
3613;SDS011;1821;50.936;6.854;2023-06-24T01:21:09;9.35;;;7.70;;
3613;SDS011;1821;50.936;6.854;2023-06-24T01:22:43;10.40;;;9.20;;
3613;SDS011;1821;50.936;6.854;2023-06-24T01:25:33;11.70;;;8.00;;
3613;SDS011;1821;50.936;6.854;2023-06-24T01:32:31;9.85;;;8.50;;
3613;SDS011;1821;50.936;6.854;2023-06-24T01:33:19;9.60;;;8.63;;
3613;SDS011;1821;50.936;6.854;2023-06-24T01:34:55;10.77;;;9.50;;
3613;SDS011;1821;50.936;6.854;2023-06-24T01:35:38;9.93;;;8.90;;
3613;SDS011;1821;50.936;6.854;2023-06-24T01:36:22;9.75;;;8.38;;
3613;SDS011;1821;50.936;6.854;2023-06-24T01:37:20;10.05;;;9.05;;
3613;SDS011;1821;50.936;6.854;2023-06-24T01:38:05;11.45;;;9.00;;
3613;SDS011;1821;50.936;6.854;2023-06-24T01:38:52;9.30;;;8.30;;
3613;SDS011;1821;50.936;6.854;2023-06-24T01:40:25;8.88;;;7.97;;
3613;SDS011;1821;50.936;6.854;2023-06-24T01:40:44;10.50;;;8.45;;
3613;SDS011;1821;50.936;6.854;2023-06-24T01:41:26;10.65;;;8.55;;
3613;SDS011;1821;50.936;6.854;2023-06-24T01:42:14;10.30;;;9.20;;
3613;SDS011;1821;50.936;6.854;2023-06-24T01:42:58;10.20;;;8.90;;
3613;SDS011;1821;50.936;6.854;2023-06-24T01:43:42;9.82;;;8.57;;
3613;SDS011;1821;50.936;6.854;2023-06-24T01:44:25;9.20;;;8.30;;
3613;SDS011;1821;50.936;6.854;2023-06-24T01:45:13;10.20;;;8.70;;
3613;SDS011;1821;50.936;6.854;2023-06-24T01:45:56;10.30;;;8.63;;
3613;SDS011;1821;50.936;6.854;2023-06-24T01:46:38;9.20;;;8.20;;
3613;SDS011;1821;50.936;6.854;2023-06-24T01:47:23;8.98;;;8.07;;
3613;SDS011;1821;50.936;6.854;2023-06-24T01:48:50;11.25;;;8.70;;
3613;SDS011;1821;50.936;6.854;2023-06-24T01:49:34;10.25;;;8.73;;
3613;SDS011;1821;50.936;6.854;2023-06-24T01:50:21;9.20;;;8.30;;
3613;SDS011;1821;50.936;6.854;2023-06-24T01:51:08;9.13;;;8.23;;
3613;SDS011;1821;50.936;6.854;2023-06-24T01:51:51;9.20;;;8.30;;
3613;SDS011;1821;50.936;6.854;2023-06-24T01:52:34;9.90;;;8.57;;
3613;SDS011;1821;50.936;6.854;2023-06-24T01:53:17;9.40;;;8.18;;
3613;SDS011;1821;50.936;6.854;2023-06-24T01:54:02;8.75;;;7.72;;
3613;SDS011;1821;50.936;6.854;2023-06-24T01:54:44;9.73;;;8.48;;
3613;SDS011;1821;50.936;6.854;2023-06-24T01:55:29;10.70;;;9.10;;
3613;SDS011;1821;50.936;6.854;2023-06-24T01:56:14;9.30;;;8.35;;
3613;SDS011;1821;50.936;6.854;2023-06-24T01:56:57;11.02;;;8.93;;
3613;SDS011;1821;50.936;6.854;2023-06-24T01:57:40;10.93;;;8.20;;
3613;SDS011;1821;50.936;6.854;2023-06-24T01:58:23;9.50;;;8.50;;
3613;SDS011;1821;50.936;6.854;2023-06-24T01:59:08;9.90;;;8.90;;
3613;SDS011;1821;50.936;6.854;2023-06-24T01:59:53;9.63;;;8.40;;
3613;SDS011;1821;50.936;6.854;2023-06-24T02:00:36;10.73;;;8.35;;
3613;SDS011;1821;50.936;6.854;2023-06-24T02:01:19;9.70;;;8.50;;
3613;SDS011;1821;50.936;6.854;2023-06-24T02:02:02;9.80;;;8.60;;
3613;SDS011;1821;50.936;6.854;2023-06-24T02:02:46;9.60;;;8.60;;
3613;SDS011;1821;50.936;6.854;2023-06-24T02:03:29;10.60;;;9.00;;
3613;SDS011;1821;50.936;6.854;2023-06-24T02:04:11;10.07;;;8.52;;
3613;SDS011;1821;50.936;6.854;2023-06-24T02:04:54;10.70;;;9.02;;
3613;SDS011;1821;50.936;6.854;2023-06-24T02:05:38;10.52;;;9.05;;
3613;SDS011;1821;50.936;6.854;2023-06-24T02:06:23;10.30;;;8.75;;
3613;SDS011;1821;50.936;6.854;2023-06-24T02:07:06;10.20;;;8.93;;
3613;SDS011;1821;50.936;6.854;2023-06-24T02:07:50;10.70;;;9.60;;
3613;SDS011;1821;50.936;6.854;2023-06-24T02:08:34;10.88;;;8.88;;
3613;SDS011;1821;50.936;6.854;2023-06-24T02:09:17;12.73;;;9.38;;
3613;SDS011;1821;50.936;6.854;2023-06-24T02:10:00;10.13;;;8.93;;
3613;SDS011;1821;50.936;6.854;2023-06-24T02:10:44;10.55;;;8.90;;
3613;SDS011;1821;50.936;6.854;2023-06-24T02:11:28;10.05;;;9.05;;
3613;SDS011;1821;50.936;6.854;2023-06-24T02:12:12;11.25;;;9.18;;
3613;SDS011;1821;50.936;6.854;2023-06-24T02:12:54;11.35;;;9.73;;
3613;SDS011;1821;50.936;6.854;2023-06-24T02:13:38;10.95;;;9.30;;
3613;SDS011;1821;50.936;6.854;2023-06-24T02:14:20;12.43;;;9.05;;
3613;SDS011;1821;50.936;6.854;2023-06-24T02:15:03;11.35;;;8.75;;
3613;SDS011;1821;50.936;6.854;2023-06-24T02:15:48;9.77;;;8.77;;
3613;SDS011;1821;50.936;6.854;2023-06-24T02:16:32;10.10;;;8.63;;
3613;SDS011;1821;50.936;6.854;2023-06-24T02:17:17;10.77;;;8.90;;
3613;SDS011;1821;50.936;6.854;2023-06-24T02:17:59;10.40;;;8.52;;
3613;SDS011;1821;50.936;6.854;2023-06-24T02:18:43;9.98;;;8.98;;
3613;SDS011;1821;50.936;6.854;2023-06-24T02:19:29;10.43;;;8.57;;
3613;SDS011;1821;50.936;6.854;2023-06-24T02:20:12;11.07;;;9.13;;
3613;SDS011;1821;50.936;6.854;2023-06-24T02:20:57;9.95;;;8.82;;
3613;SDS011;1821;50.936;6.854;2023-06-24T02:21:41;12.10;;;9.30;;
3613;SDS011;1821;50.936;6.854;2023-06-24T02:22:23;12.48;;;9.52;;
3613;SDS011;1821;50.936;6.854;2023-06-24T02:23:06;11.00;;;9.20;;
3613;SDS011;1821;50.936;6.854;2023-06-24T02:23:49;10.38;;;9.07;;
3613;SDS011;1821;50.936;6.854;2023-06-24T02:24:33;12.60;;;9.82;;
3613;SDS011;1821;50.936;6.854;2023-06-24T02:25:17;11.98;;;9.27;;
3613;SDS011;1821;50.936;6.854;2023-06-24T02:26:00;10.70;;;8.43;;
3613;SDS011;1821;50.936;6.854;2023-06-24T02:26:42;11.70;;;9.50;;
3613;SDS011;1821;50.936;6.854;2023-06-24T02:27:26;10.70;;;8.90;;
3613;SDS011;1821;50.936;6.854;2023-06-24T02:28:10;9.57;;;8.40;;
3613;SDS011;1821;50.936;6.854;2023-06-24T02:28:53;9.27;;;8.27;;
3613;SDS011;1821;50.936;6.854;2023-06-24T02:29:35;10.52;;;9.23;;
3613;SDS011;1821;50.936;6.854;2023-06-24T02:30:20;11.07;;;9.98;;
3613;SDS011;1821;50.936;6.854;2023-06-24T02:31:05;9.50;;;8.57;;
3613;SDS011;1821;50.936;6.854;2023-06-24T02:31:48;9.68;;;8.45;;
3613;SDS011;1821;50.936;6.854;2023-06-24T02:32:33;11.90;;;9.52;;
3613;SDS011;1821;50.936;6.854;2023-06-24T02:33:17;10.52;;;9.40;;
3613;SDS011;1821;50.936;6.854;2023-06-24T02:33:59;9.85;;;8.85;;
3613;SDS011;1821;50.936;6.854;2023-06-24T02:34:41;10.45;;;8.93;;
3613;SDS011;1821;50.936;6.854;2023-06-24T02:35:24;10.90;;;9.40;;
3613;SDS011;1821;50.936;6.854;2023-06-24T02:36:06;10.40;;;9.30;;
3613;SDS011;1821;50.936;6.854;2023-06-24T02:36:48;11.48;;;9.77;;
3613;SDS011;1821;50.936;6.854;2023-06-24T02:37:31;12.20;;;10.10;;
3613;SDS011;1821;50.936;6.854;2023-06-24T02:38:13;11.05;;;9.88;;
3613;SDS011;1821;50.936;6.854;2023-06-24T02:38:57;11.68;;;10.05;;
3613;SDS011;1821;50.936;6.854;2023-06-24T02:39:40;12.30;;;10.32;;
3613;SDS011;1821;50.936;6.854;2023-06-24T02:40:25;13.40;;;10.60;;
3613;SDS011;1821;50.936;6.854;2023-06-24T02:41:08;12.10;;;10.52;;
3613;SDS011;1821;50.936;6.854;2023-06-24T02:41:50;11.55;;;10.30;;
3613;SDS011;1821;50.936;6.854;2023-06-24T02:42:33;11.45;;;10.30;;
3613;SDS011;1821;50.936;6.854;2023-06-24T02:43:17;12.18;;;10.88;;
3613;SDS011;1821;50.936;6.854;2023-06-24T02:44:00;11.27;;;10.18;;
3613;SDS011;1821;50.936;6.854;2023-06-24T02:44:42;11.73;;;10.53;;
3613;SDS011;1821;50.936;6.854;2023-06-24T02:45:25;11.40;;;10.30;;
3613;SDS011;1821;50.936;6.854;2023-06-24T02:46:07;14.60;;;10.65;;
3613;SDS011;1821;50.936;6.854;2023-06-24T02:46:50;15.82;;;10.48;;
3613;SDS011;1821;50.936;6.854;2023-06-24T02:47:33;13.15;;;9.82;;
3613;SDS011;1821;50.936;6.854;2023-06-24T02:48:15;11.80;;;9.85;;
3613;SDS011;1821;50.936;6.854;2023-06-24T02:48:58;14.18;;;10.10;;
3613;SDS011;1821;50.936;6.854;2023-06-24T02:49:41;13.32;;;10.57;;
3613;SDS011;1821;50.936;6.854;2023-06-24T02:50:27;11.93;;;10.73;;
3613;SDS011;1821;50.936;6.854;2023-06-24T02:51:10;11.23;;;10.13;;
3613;SDS011;1821;50.936;6.854;2023-06-24T02:51:53;14.75;;;10.48;;
3613;SDS011;1821;50.936;6.854;2023-06-24T02:52:35;11.10;;;9.90;;
3613;SDS011;1821;50.936;6.854;2023-06-24T02:53:18;11.45;;;10.15;;
3613;SDS011;1821;50.936;6.854;2023-06-24T02:54:01;12.25;;;10.93;;
3613;SDS011;1821;50.936;6.854;2023-06-24T02:54:44;12.90;;;10.63;;
3613;SDS011;1821;50.936;6.854;2023-06-24T02:55:26;13.68;;;10.30;;
3613;SDS011;1821;50.936;6.854;2023-06-24T02:56:12;13.80;;;11.23;;
3613;SDS011;1821;50.936;6.854;2023-06-24T02:56:56;13.32;;;10.18;;
3613;SDS011;1821;50.936;6.854;2023-06-24T02:57:41;14.75;;;10.95;;
3613;SDS011;1821;50.936;6.854;2023-06-24T02:58:23;11.52;;;10.20;;
3613;SDS011;1821;50.936;6.854;2023-06-24T02:59:15;12.23;;;10.93;;
3613;SDS011;1821;50.936;6.854;2023-06-24T02:59:58;11.73;;;10.50;;
3613;SDS011;1821;50.936;6.854;2023-06-24T03:00:40;11.88;;;10.48;;
3613;SDS011;1821;50.936;6.854;2023-06-24T03:01:25;11.40;;;10.23;;
3613;SDS011;1821;50.936;6.854;2023-06-24T03:02:11;11.20;;;10.10;;
3613;SDS011;1821;50.936;6.854;2023-06-24T03:02:53;10.85;;;9.40;;
3613;SDS011;1821;50.936;6.854;2023-06-24T03:03:36;12.80;;;10.25;;
3613;SDS011;1821;50.936;6.854;2023-06-24T03:04:19;11.70;;;9.77;;
3613;SDS011;1821;50.936;6.854;2023-06-24T03:05:02;12.38;;;10.10;;
3613;SDS011;1821;50.936;6.854;2023-06-24T03:05:44;12.55;;;10.10;;
3613;SDS011;1821;50.936;6.854;2023-06-24T03:06:32;12.38;;;10.70;;
3613;SDS011;1821;50.936;6.854;2023-06-24T03:07:20;14.20;;;9.98;;
3613;SDS011;1821;50.936;6.854;2023-06-24T03:08:03;13.65;;;10.20;;
3613;SDS011;1821;50.936;6.854;2023-06-24T03:08:45;14.15;;;10.07;;
3613;SDS011;1821;50.936;6.854;2023-06-24T03:09:27;11.25;;;9.85;;
3613;SDS011;1821;50.936;6.854;2023-06-24T03:10:10;11.85;;;10.25;;
3613;SDS011;1821;50.936;6.854;2023-06-24T03:10:55;10.75;;;9.65;;
3613;SDS011;1821;50.936;6.854;2023-06-24T03:11:41;11.27;;;10.18;;
3613;SDS011;1821;50.936;6.854;2023-06-24T03:12:24;11.98;;;9.45;;
3613;SDS011;1821;50.936;6.854;2023-06-24T03:13:06;11.05;;;9.85;;
3613;SDS011;1821;50.936;6.854;2023-06-24T03:13:49;10.77;;;9.77;;
3613;SDS011;1821;50.936;6.854;2023-06-24T03:14:31;11.20;;;10.10;;
3613;SDS011;1821;50.936;6.854;2023-06-24T03:15:13;10.50;;;9.40;;
3613;SDS011;1821;50.936;6.854;2023-06-24T03:15:55;10.80;;;9.70;;
3613;SDS011;1821;50.936;6.854;2023-06-24T03:16:38;11.27;;;9.45;;
3613;SDS011;1821;50.936;6.854;2023-06-24T03:17:20;10.13;;;9.02;;
3613;SDS011;1821;50.936;6.854;2023-06-24T03:18:02;10.23;;;9.23;;
3613;SDS011;1821;50.936;6.854;2023-06-24T03:18:45;10.50;;;9.50;;
3613;SDS011;1821;50.936;6.854;2023-06-24T03:19:27;10.95;;;9.82;;
3613;SDS011;1821;50.936;6.854;2023-06-24T03:20:10;11.60;;;9.98;;
3613;SDS011;1821;50.936;6.854;2023-06-24T03:20:52;11.98;;;10.30;;
3613;SDS011;1821;50.936;6.854;2023-06-24T03:21:34;11.95;;;10.55;;
3613;SDS011;1821;50.936;6.854;2023-06-24T03:22:21;12.10;;;10.90;;
3613;SDS011;1821;50.936;6.854;2023-06-24T03:23:03;11.35;;;10.30;;
3613;SDS011;1821;50.936;6.854;2023-06-24T03:23:45;11.32;;;10.23;;
3613;SDS011;1821;50.936;6.854;2023-06-24T03:24:28;11.50;;;10.27;;
3613;SDS011;1821;50.936;6.854;2023-06-24T03:25:10;12.02;;;10.20;;
3613;SDS011;1821;50.936;6.854;2023-06-24T03:25:52;13.05;;;10.35;;
3613;SDS011;1821;50.936;6.854;2023-06-24T03:26:35;12.00;;;10.40;;
3613;SDS011;1821;50.936;6.854;2023-06-24T03:27:18;11.60;;;10.50;;
3613;SDS011;1821;50.936;6.854;2023-06-24T03:28:00;11.68;;;10.50;;
3613;SDS011;1821;50.936;6.854;2023-06-24T03:28:47;13.27;;;10.52;;
3613;SDS011;1821;50.936;6.854;2023-06-24T03:29:29;11.50;;;10.30;;
3613;SDS011;1821;50.936;6.854;2023-06-24T03:30:11;11.20;;;10.10;;
3613;SDS011;1821;50.936;6.854;2023-06-24T03:30:56;13.02;;;10.15;;
3613;SDS011;1821;50.936;6.854;2023-06-24T03:31:39;11.98;;;10.75;;
3613;SDS011;1821;50.936;6.854;2023-06-24T03:32:25;12.20;;;10.90;;
3613;SDS011;1821;50.936;6.854;2023-06-24T03:33:10;11.88;;;10.68;;
3613;SDS011;1821;50.936;6.854;2023-06-24T03:33:58;12.80;;;10.98;;
3613;SDS011;1821;50.936;6.854;2023-06-24T03:34:40;13.25;;;11.00;;
3613;SDS011;1821;50.936;6.854;2023-06-24T03:35:23;12.88;;;11.07;;
3613;SDS011;1821;50.936;6.854;2023-06-24T03:36:05;12.20;;;11.00;;
3613;SDS011;1821;50.936;6.854;2023-06-24T03:36:47;12.00;;;10.40;;
3613;SDS011;1821;50.936;6.854;2023-06-24T03:37:30;13.57;;;11.18;;
3613;SDS011;1821;50.936;6.854;2023-06-24T03:38:12;12.43;;;11.13;;
3613;SDS011;1821;50.936;6.854;2023-06-24T03:38:55;12.55;;;11.32;;
3613;SDS011;1821;50.936;6.854;2023-06-24T03:39:37;12.18;;;10.98;;
3613;SDS011;1821;50.936;6.854;2023-06-24T03:40:19;12.43;;;11.10;;
3613;SDS011;1821;50.936;6.854;2023-06-24T03:41:02;13.13;;;11.00;;
3613;SDS011;1821;50.936;6.854;2023-06-24T03:41:44;14.32;;;11.60;;
3613;SDS011;1821;50.936;6.854;2023-06-24T03:42:26;13.02;;;11.73;;
3613;SDS011;1821;50.936;6.854;2023-06-24T03:43:10;12.60;;;11.40;;
3613;SDS011;1821;50.936;6.854;2023-06-24T03:43:55;12.80;;;11.50;;
3613;SDS011;1821;50.936;6.854;2023-06-24T03:44:38;13.52;;;12.05;;
3613;SDS011;1821;50.936;6.854;2023-06-24T03:45:20;13.05;;;11.80;;
3613;SDS011;1821;50.936;6.854;2023-06-24T03:46:02;13.23;;;11.95;;
3613;SDS011;1821;50.936;6.854;2023-06-24T03:46:45;12.48;;;10.95;;
3613;SDS011;1821;50.936;6.854;2023-06-24T03:47:27;12.30;;;10.90;;
3613;SDS011;1821;50.936;6.854;2023-06-24T03:48:09;11.85;;;10.65;;
3613;SDS011;1821;50.936;6.854;2023-06-24T03:48:52;16.60;;;10.95;;
3613;SDS011;1821;50.936;6.854;2023-06-24T03:49:34;14.10;;;10.75;;
3613;SDS011;1821;50.936;6.854;2023-06-24T03:50:16;11.90;;;10.75;;
3613;SDS011;1821;50.936;6.854;2023-06-24T03:51:01;13.30;;;10.98;;
3613;SDS011;1821;50.936;6.854;2023-06-24T03:51:43;13.10;;;11.25;;
3613;SDS011;1821;50.936;6.854;2023-06-24T03:52:25;12.85;;;10.70;;
3613;SDS011;1821;50.936;6.854;2023-06-24T03:53:08;13.30;;;11.50;;
3613;SDS011;1821;50.936;6.854;2023-06-24T03:53:50;13.90;;;11.65;;
3613;SDS011;1821;50.936;6.854;2023-06-24T03:54:35;14.43;;;10.93;;
3613;SDS011;1821;50.936;6.854;2023-06-24T03:55:17;14.77;;;11.43;;
3613;SDS011;1821;50.936;6.854;2023-06-24T03:55:59;13.48;;;11.00;;
3613;SDS011;1821;50.936;6.854;2023-06-24T03:56:42;14.15;;;11.30;;
3613;SDS011;1821;50.936;6.854;2023-06-24T03:57:25;12.80;;;11.45;;
3613;SDS011;1821;50.936;6.854;2023-06-24T03:58:07;12.52;;;10.70;;
3613;SDS011;1821;50.936;6.854;2023-06-24T03:58:49;12.23;;;10.32;;
3613;SDS011;1821;50.936;6.854;2023-06-24T03:59:34;11.80;;;10.60;;
3613;SDS011;1821;50.936;6.854;2023-06-24T04:00:17;12.38;;;11.07;;
3613;SDS011;1821;50.936;6.854;2023-06-24T04:01:04;11.80;;;10.60;;
3613;SDS011;1821;50.936;6.854;2023-06-24T04:01:46;11.95;;;10.75;;
3613;SDS011;1821;50.936;6.854;2023-06-24T04:02:28;12.07;;;10.88;;
3613;SDS011;1821;50.936;6.854;2023-06-24T04:03:11;12.95;;;11.55;;
3613;SDS011;1821;50.936;6.854;2023-06-24T04:03:53;12.23;;;11.02;;
3613;SDS011;1821;50.936;6.854;2023-06-24T04:04:39;11.15;;;9.82;;
3613;SDS011;1821;50.936;6.854;2023-06-24T04:05:22;11.88;;;10.57;;
3613;SDS011;1821;50.936;6.854;2023-06-24T04:06:06;13.57;;;10.48;;
3613;SDS011;1821;50.936;6.854;2023-06-24T04:06:48;15.50;;;10.57;;
3613;SDS011;1821;50.936;6.854;2023-06-24T04:07:30;11.18;;;9.98;;
3613;SDS011;1821;50.936;6.854;2023-06-24T04:08:12;12.10;;;10.60;;
3613;SDS011;1821;50.936;6.854;2023-06-24T04:08:55;14.65;;;10.65;;
3613;SDS011;1821;50.936;6.854;2023-06-24T04:09:37;14.57;;;10.77;;
3613;SDS011;1821;50.936;6.854;2023-06-24T04:10:20;13.05;;;11.07;;
3613;SDS011;1821;50.936;6.854;2023-06-24T04:11:03;11.90;;;10.70;;
3613;SDS011;1821;50.936;6.854;2023-06-24T04:11:48;11.90;;;10.70;;
3613;SDS011;1821;50.936;6.854;2023-06-24T04:12:32;11.45;;;10.25;;
3613;SDS011;1821;50.936;6.854;2023-06-24T04:13:14;12.35;;;11.05;;
3613;SDS011;1821;50.936;6.854;2023-06-24T04:13:57;11.25;;;10.15;;
3613;SDS011;1821;50.936;6.854;2023-06-24T04:14:39;11.57;;;10.07;;
3613;SDS011;1821;50.936;6.854;2023-06-24T04:15:24;13.10;;;10.80;;
3613;SDS011;1821;50.936;6.854;2023-06-24T04:16:07;11.75;;;10.38;;
3613;SDS011;1821;50.936;6.854;2023-06-24T04:16:49;11.93;;;10.50;;
3613;SDS011;1821;50.936;6.854;2023-06-24T04:17:31;11.88;;;10.10;;
3613;SDS011;1821;50.936;6.854;2023-06-24T04:18:14;10.98;;;9.30;;
3613;SDS011;1821;50.936;6.854;2023-06-24T04:18:56;12.77;;;10.15;;
3613;SDS011;1821;50.936;6.854;2023-06-24T04:19:38;11.93;;;10.35;;
3613;SDS011;1821;50.936;6.854;2023-06-24T04:20:20;10.45;;;9.15;;
3613;SDS011;1821;50.936;6.854;2023-06-24T04:21:03;10.88;;;9.50;;
3613;SDS011;1821;50.936;6.854;2023-06-24T04:21:45;10.60;;;9.45;;
3613;SDS011;1821;50.936;6.854;2023-06-24T04:22:27;12.07;;;10.45;;
3613;SDS011;1821;50.936;6.854;2023-06-24T04:23:10;11.88;;;10.57;;
3613;SDS011;1821;50.936;6.854;2023-06-24T04:23:52;11.25;;;10.15;;
3613;SDS011;1821;50.936;6.854;2023-06-24T04:24:35;11.90;;;9.50;;
3613;SDS011;1821;50.936;6.854;2023-06-24T04:25:17;11.80;;;9.77;;
3613;SDS011;1821;50.936;6.854;2023-06-24T04:25:59;13.90;;;10.10;;
3613;SDS011;1821;50.936;6.854;2023-06-24T04:26:42;14.32;;;9.52;;
3613;SDS011;1821;50.936;6.854;2023-06-24T04:27:24;11.75;;;10.45;;
3613;SDS011;1821;50.936;6.854;2023-06-24T04:28:06;12.98;;;10.52;;
3613;SDS011;1821;50.936;6.854;2023-06-24T04:28:49;12.50;;;10.00;;
3613;SDS011;1821;50.936;6.854;2023-06-24T04:29:31;12.10;;;10.15;;
3613;SDS011;1821;50.936;6.854;2023-06-24T04:30:13;10.77;;;9.63;;
3613;SDS011;1821;50.936;6.854;2023-06-24T04:30:56;11.68;;;10.32;;
3613;SDS011;1821;50.936;6.854;2023-06-24T04:31:38;11.43;;;9.90;;
3613;SDS011;1821;50.936;6.854;2023-06-24T04:32:21;11.95;;;9.75;;
3613;SDS011;1821;50.936;6.854;2023-06-24T04:33:05;11.23;;;9.80;;
3613;SDS011;1821;50.936;6.854;2023-06-24T04:33:47;11.27;;;9.98;;
3613;SDS011;1821;50.936;6.854;2023-06-24T04:34:30;10.75;;;9.75;;
3613;SDS011;1821;50.936;6.854;2023-06-24T04:35:13;11.23;;;9.23;;
3613;SDS011;1821;50.936;6.854;2023-06-24T04:35:56;11.50;;;8.80;;
3613;SDS011;1821;50.936;6.854;2023-06-24T04:36:39;12.85;;;9.40;;
3613;SDS011;1821;50.936;6.854;2023-06-24T04:37:22;13.45;;;9.77;;
3613;SDS011;1821;50.936;6.854;2023-06-24T04:38:04;13.30;;;10.10;;
3613;SDS011;1821;50.936;6.854;2023-06-24T04:38:46;11.45;;;9.73;;
3613;SDS011;1821;50.936;6.854;2023-06-24T04:39:29;11.25;;;9.80;;
3613;SDS011;1821;50.936;6.854;2023-06-24T04:40:11;11.13;;;9.93;;